sensor_id;sensor_type;location;lat;lon;timestamp;pressure;altitude;pressure_sealevel;temperature;humidity
25855;BME280;13680;49.936;11.344;2024-01-11T00:02:07;97782.06;;;-5.00;66.11
25855;BME280;13680;49.936;11.344;2024-01-11T00:04:33;97781.91;;;-5.06;66.29
25855;BME280;13680;49.936;11.344;2024-01-11T00:07:00;97776.56;;;-5.13;66.33
25855;BME280;13680;49.936;11.344;2024-01-11T00:09:25;97780.00;;;-5.13;65.99
25855;BME280;13680;49.936;11.344;2024-01-11T00:11:50;97778.38;;;-5.14;66.65
25855;BME280;13680;49.936;11.344;2024-01-11T00:14:16;97785.41;;;-5.14;65.88
25855;BME280;13680;49.936;11.344;2024-01-11T00:16:41;97775.28;;;-5.17;66.26
25855;BME280;13680;49.936;11.344;2024-01-11T00:19:06;97776.91;;;-5.16;66.08
25855;BME280;13680;49.936;11.344;2024-01-11T00:21:32;97786.56;;;-5.17;66.52
25855;BME280;13680;49.936;11.344;2024-01-11T00:23:57;97776.31;;;-5.27;66.81
25855;BME280;13680;49.936;11.344;2024-01-11T00:26:22;97776.78;;;-5.23;66.78
25855;BME280;13680;49.936;11.344;2024-01-11T00:28:48;97783.66;;;-5.22;67.51
25855;BME280;13680;49.936;11.344;2024-01-11T00:31:13;97780.88;;;-5.20;67.12
25855;BME280;13680;49.936;11.344;2024-01-11T00:33:39;97769.44;;;-5.28;67.12
25855;BME280;13680;49.936;11.344;2024-01-11T00:36:04;97777.13;;;-5.26;66.89
25855;BME280;13680;49.936;11.344;2024-01-11T00:38:29;97783.63;;;-5.14;66.51
25855;BME280;13680;49.936;11.344;2024-01-11T00:40:54;97779.25;;;-5.21;67.19
25855;BME280;13680;49.936;11.344;2024-01-11T00:43:20;97783.03;;;-5.24;67.51
25855;BME280;13680;49.936;11.344;2024-01-11T00:45:45;97778.59;;;-5.23;67.73
25855;BME280;13680;49.936;11.344;2024-01-11T00:48:11;97776.66;;;-5.30;67.73
25855;BME280;13680;49.936;11.344;2024-01-11T00:50:37;97771.00;;;-5.42;68.06
25855;BME280;13680;49.936;11.344;2024-01-11T00:53:02;97774.72;;;-5.36;67.99
25855;BME280;13680;49.936;11.344;2024-01-11T00:55:28;97780.13;;;-5.37;67.50
25855;BME280;13680;49.936;11.344;2024-01-11T00:57:54;97775.56;;;-5.44;68.08
25855;BME280;13680;49.936;11.344;2024-01-11T01:00:19;97782.44;;;-5.43;68.17
25855;BME280;13680;49.936;11.344;2024-01-11T01:02:44;97783.13;;;-5.49;67.48
25855;BME280;13680;49.936;11.344;2024-01-11T01:05:10;97781.34;;;-5.48;67.08
25855;BME280;13680;49.936;11.344;2024-01-11T01:07:35;97774.66;;;-5.51;67.46
25855;BME280;13680;49.936;11.344;2024-01-11T01:10:01;97781.38;;;-5.56;67.48
25855;BME280;13680;49.936;11.344;2024-01-11T01:12:27;97775.81;;;-5.53;68.00
25855;BME280;13680;49.936;11.344;2024-01-11T01:14:52;97778.56;;;-5.55;67.70
25855;BME280;13680;49.936;11.344;2024-01-11T01:17:17;97778.44;;;-5.62;67.13
25855;BME280;13680;49.936;11.344;2024-01-11T01:19:44;97780.88;;;-5.60;67.06
25855;BME280;13680;49.936;11.344;2024-01-11T01:22:10;97784.53;;;-5.61;67.60
25855;BME280;13680;49.936;11.344;2024-01-11T01:24:35;97785.50;;;-5.62;67.01
25855;BME280;13680;49.936;11.344;2024-01-11T01:27:00;97780.88;;;-5.60;67.70
25855;BME280;13680;49.936;11.344;2024-01-11T01:29:26;97776.66;;;-5.61;67.13
25855;BME280;13680;49.936;11.344;2024-01-11T01:31:51;97778.28;;;-5.60;67.15
25855;BME280;13680;49.936;11.344;2024-01-11T01:34:17;97771.56;;;-5.63;67.80
25855;BME280;13680;49.936;11.344;2024-01-11T01:36:42;97769.34;;;-5.74;67.95
25855;BME280;13680;49.936;11.344;2024-01-11T01:39:07;97777.66;;;-5.70;67.78
25855;BME280;13680;49.936;11.344;2024-01-11T01:41:33;97779.81;;;-5.74;67.99
25855;BME280;13680;49.936;11.344;2024-01-11T01:43:58;97784.22;;;-5.75;67.61
25855;BME280;13680;49.936;11.344;2024-01-11T01:46:24;97783.56;;;-5.77;67.32
25855;BME280;13680;49.936;11.344;2024-01-11T01:48:52;97788.44;;;-5.65;67.74
25855;BME280;13680;49.936;11.344;2024-01-11T01:51:19;97781.66;;;-5.83;67.37
25855;BME280;13680;49.936;11.344;2024-01-11T01:53:44;97780.34;;;-5.87;67.39
25855;BME280;13680;49.936;11.344;2024-01-11T01:56:11;97784.63;;;-5.94;68.05
25855;BME280;13680;49.936;11.344;2024-01-11T01:58:37;97785.94;;;-5.90;67.49
25855;BME280;13680;49.936;11.344;2024-01-11T02:01:02;97777.09;;;-5.89;67.50
25855;BME280;13680;49.936;11.344;2024-01-11T02:03:28;97774.47;;;-5.97;67.96
25855;BME280;13680;49.936;11.344;2024-01-11T02:05:55;97766.03;;;-5.99;67.77
25855;BME280;13680;49.936;11.344;2024-01-11T02:08:22;97769.63;;;-6.00;67.46
25855;BME280;13680;49.936;11.344;2024-01-11T02:10:51;97776.00;;;-6.03;67.95
25855;BME280;13680;49.936;11.344;2024-01-11T02:13:18;97777.09;;;-5.97;67.56
25855;BME280;13680;49.936;11.344;2024-01-11T02:15:44;97789.59;;;-5.99;68.37
25855;BME280;13680;49.936;11.344;2024-01-11T02:18:10;97777.66;;;-6.02;67.77
25855;BME280;13680;49.936;11.344;2024-01-11T02:20:35;97778.63;;;-6.03;67.61
25855;BME280;13680;49.936;11.344;2024-01-11T02:23:06;97775.19;;;-6.03;68.21
25855;BME280;13680;49.936;11.344;2024-01-11T02:25:33;97774.38;;;-6.04;67.63
25855;BME280;13680;49.936;11.344;2024-01-11T02:27:58;97770.78;;;-6.03;67.74
25855;BME280;13680;49.936;11.344;2024-01-11T02:30:23;97774.72;;;-6.07;68.02
25855;BME280;13680;49.936;11.344;2024-01-11T02:32:50;97781.56;;;-6.06;68.04
25855;BME280;13680;49.936;11.344;2024-01-11T02:35:16;97790.59;;;-6.17;67.96
25855;BME280;13680;49.936;11.344;2024-01-11T02:37:41;97780.31;;;-6.27;68.68
25855;BME280;13680;49.936;11.344;2024-01-11T02:40:07;97781.13;;;-6.18;68.23
25855;BME280;13680;49.936;11.344;2024-01-11T02:42:34;97789.31;;;-6.29;68.95
25855;BME280;13680;49.936;11.344;2024-01-11T02:45:00;97779.03;;;-6.39;68.79
25855;BME280;13680;49.936;11.344;2024-01-11T02:47:25;97784.09;;;-6.37;69.29
25855;BME280;13680;49.936;11.344;2024-01-11T02:49:51;97775.25;;;-6.28;68.97
25855;BME280;13680;49.936;11.344;2024-01-11T02:52:16;97766.75;;;-6.38;69.55
25855;BME280;13680;49.936;11.344;2024-01-11T02:54:42;97764.16;;;-6.38;69.64
25855;BME280;13680;49.936;11.344;2024-01-11T02:57:07;97748.59;;;-6.32;68.68
25855;BME280;13680;49.936;11.344;2024-01-11T02:59:32;97755.81;;;-6.34;68.92
25855;BME280;13680;49.936;11.344;2024-01-11T03:01:58;97755.94;;;-6.35;68.56
25855;BME280;13680;49.936;11.344;2024-01-11T03:04:23;97761.19;;;-6.35;67.94
25855;BME280;13680;49.936;11.344;2024-01-11T03:06:48;97764.31;;;-6.40;68.77
25855;BME280;13680;49.936;11.344;2024-01-11T03:09:14;97758.41;;;-6.42;68.05
25855;BME280;13680;49.936;11.344;2024-01-11T03:11:39;97758.59;;;-6.44;69.16
25855;BME280;13680;49.936;11.344;2024-01-11T03:14:04;97748.47;;;-6.47;69.18
25855;BME280;13680;49.936;11.344;2024-01-11T03:16:30;97752.38;;;-6.51;68.92
25855;BME280;13680;49.936;11.344;2024-01-11T03:18:55;97738.97;;;-6.48;69.28
25855;BME280;13680;49.936;11.344;2024-01-11T03:21:20;97735.69;;;-6.50;69.64
25855;BME280;13680;49.936;11.344;2024-01-11T03:23:46;97734.06;;;-6.43;68.38
25855;BME280;13680;49.936;11.344;2024-01-11T03:26:16;97731.75;;;-6.37;68.08
25855;BME280;13680;49.936;11.344;2024-01-11T03:28:41;97728.50;;;-6.48;68.77
25855;BME280;13680;49.936;11.344;2024-01-11T03:31:10;97736.19;;;-6.54;69.34
25855;BME280;13680;49.936;11.344;2024-01-11T03:33:36;97733.09;;;-6.50;68.30
25855;BME280;13680;49.936;11.344;2024-01-11T03:36:11;97726.06;;;-6.58;69.98
25855;BME280;13680;49.936;11.344;2024-01-11T03:38:37;97720.19;;;-6.51;69.38
25855;BME280;13680;49.936;11.344;2024-01-11T03:41:10;97745.88;;;-6.63;70.21
25855;BME280;13680;49.936;11.344;2024-01-11T03:43:36;97738.16;;;-6.56;69.15
25855;BME280;13680;49.936;11.344;2024-01-11T03:46:02;97745.84;;;-6.55;69.40
25855;BME280;13680;49.936;11.344;2024-01-11T03:48:27;97750.09;;;-6.54;69.05
25855;BME280;13680;49.936;11.344;2024-01-11T03:50:53;97755.16;;;-6.52;68.60
25855;BME280;13680;49.936;11.344;2024-01-11T03:53:18;97761.88;;;-6.50;68.04
25855;BME280;13680;49.936;11.344;2024-01-11T03:55:44;97753.03;;;-6.57;68.73
25855;BME280;13680;49.936;11.344;2024-01-11T03:58:09;97752.72;;;-6.62;68.75
25855;BME280;13680;49.936;11.344;2024-01-11T04:00:34;97752.88;;;-6.55;69.35
25855;BME280;13680;49.936;11.344;2024-01-11T04:03:00;97756.34;;;-6.63;69.52
25855;BME280;13680;49.936;11.344;2024-01-11T04:05:27;97755.66;;;-6.74;69.51
25855;BME280;13680;49.936;11.344;2024-01-11T04:07:52;97749.44;;;-6.72;69.75
25855;BME280;13680;49.936;11.344;2024-01-11T04:10:17;97743.59;;;-6.75;69.47
25855;BME280;13680;49.936;11.344;2024-01-11T04:12:43;97749.78;;;-6.67;69.39
25855;BME280;13680;49.936;11.344;2024-01-11T04:15:08;97750.09;;;-6.79;68.85
25855;BME280;13680;49.936;11.344;2024-01-11T04:17:34;97761.56;;;-6.80;69.03
25855;BME280;13680;49.936;11.344;2024-01-11T04:19:59;97755.50;;;-6.80;69.56
25855;BME280;13680;49.936;11.344;2024-01-11T04:22:24;97751.59;;;-6.68;69.59
25855;BME280;13680;49.936;11.344;2024-01-11T04:24:50;97747.50;;;-6.70;68.99
25855;BME280;13680;49.936;11.344;2024-01-11T04:27:15;97749.78;;;-6.76;69.44
25855;BME280;13680;49.936;11.344;2024-01-11T04:29:41;97749.44;;;-6.72;69.53
25855;BME280;13680;49.936;11.344;2024-01-11T04:32:06;97741.59;;;-6.72;69.00
25855;BME280;13680;49.936;11.344;2024-01-11T04:34:31;97748.81;;;-6.83;68.61
25855;BME280;13680;49.936;11.344;2024-01-11T04:36:57;97754.38;;;-6.69;69.37
25855;BME280;13680;49.936;11.344;2024-01-11T04:39:22;97753.38;;;-6.77;69.97
25855;BME280;13680;49.936;11.344;2024-01-11T04:41:48;97747.50;;;-6.87;69.04
25855;BME280;13680;49.936;11.344;2024-01-11T04:44:13;97753.53;;;-6.86;68.83
25855;BME280;13680;49.936;11.344;2024-01-11T04:46:38;97759.91;;;-6.89;69.81
25855;BME280;13680;49.936;11.344;2024-01-11T04:49:04;97766.63;;;-6.86;68.62
25855;BME280;13680;49.936;11.344;2024-01-11T04:51:29;97765.16;;;-6.89;68.47
25855;BME280;13680;49.936;11.344;2024-01-11T04:53:54;97761.91;;;-6.91;69.81
25855;BME280;13680;49.936;11.344;2024-01-11T04:56:20;97750.59;;;-6.92;69.31
25855;BME280;13680;49.936;11.344;2024-01-11T04:58:45;97749.78;;;-6.92;69.09
25855;BME280;13680;49.936;11.344;2024-01-11T05:01:20;97761.22;;;-6.93;68.78
25855;BME280;13680;49.936;11.344;2024-01-11T05:03:47;97753.69;;;-7.04;69.77
25855;BME280;13680;49.936;11.344;2024-01-11T05:06:20;97762.53;;;-6.97;69.71
25855;BME280;13680;49.936;11.344;2024-01-11T05:08:47;97771.69;;;-7.01;68.87
25855;BME280;13680;49.936;11.344;2024-01-11T05:11:20;97779.88;;;-6.96;69.95
25855;BME280;13680;49.936;11.344;2024-01-11T05:13:45;97774.78;;;-6.89;68.48
25855;BME280;13680;49.936;11.344;2024-01-11T05:18:48;97789.00;;;-7.00;69.00
25855;BME280;13680;49.936;11.344;2024-01-11T05:21:13;97776.28;;;-6.95;69.01
25855;BME280;13680;49.936;11.344;2024-01-11T05:23:40;97779.88;;;-6.96;69.21
25855;BME280;13680;49.936;11.344;2024-01-11T05:26:07;97775.25;;;-7.11;68.75
25855;BME280;13680;49.936;11.344;2024-01-11T05:28:32;97780.34;;;-7.09;69.40
25855;BME280;13680;49.936;11.344;2024-01-11T05:30:58;97783.75;;;-7.09;69.39
25855;BME280;13680;49.936;11.344;2024-01-11T05:33:23;97778.38;;;-7.15;69.04
25855;BME280;13680;49.936;11.344;2024-01-11T05:35:48;97779.00;;;-7.13;69.42
25855;BME280;13680;49.936;11.344;2024-01-11T05:38:13;97789.00;;;-7.09;69.36
25855;BME280;13680;49.936;11.344;2024-01-11T05:40:39;97785.56;;;-7.09;68.97
25855;BME280;13680;49.936;11.344;2024-01-11T05:43:04;97787.84;;;-7.14;69.43
25855;BME280;13680;49.936;11.344;2024-01-11T05:45:29;97793.88;;;-7.14;68.93
25855;BME280;13680;49.936;11.344;2024-01-11T05:47:55;97797.97;;;-7.11;69.30
25855;BME280;13680;49.936;11.344;2024-01-11T05:50:20;97802.22;;;-7.10;68.97
25855;BME280;13680;49.936;11.344;2024-01-11T05:52:45;97807.63;;;-7.12;68.96
25855;BME280;13680;49.936;11.344;2024-01-11T05:55:10;97807.28;;;-7.17;68.34
25855;BME280;13680;49.936;11.344;2024-01-11T05:57:36;97798.63;;;-7.17;68.23
25855;BME280;13680;49.936;11.344;2024-01-11T06:00:01;97799.13;;;-7.14;69.03
25855;BME280;13680;49.936;11.344;2024-01-11T06:02:27;97801.91;;;-7.15;68.52
25855;BME280;13680;49.936;11.344;2024-01-11T06:04:52;97802.06;;;-7.17;69.25
25855;BME280;13680;49.936;11.344;2024-01-11T06:07:18;97800.03;;;-7.31;68.69
25855;BME280;13680;49.936;11.344;2024-01-11T06:09:43;97806.56;;;-7.35;68.14
25855;BME280;13680;49.936;11.344;2024-01-11T06:12:08;97814.09;;;-7.32;68.56
25855;BME280;13680;49.936;11.344;2024-01-11T06:14:34;97804.81;;;-7.27;69.16
25855;BME280;13680;49.936;11.344;2024-01-11T06:16:59;97803.78;;;-7.34;68.66
25855;BME280;13680;49.936;11.344;2024-01-11T06:19:25;97808.22;;;-7.34;68.54
25855;BME280;13680;49.936;11.344;2024-01-11T06:21:50;97801.53;;;-7.29;69.37
25855;BME280;13680;49.936;11.344;2024-01-11T06:24:16;97808.19;;;-7.43;69.54
25855;BME280;13680;49.936;11.344;2024-01-11T06:26:41;97812.13;;;-7.38;69.63
25855;BME280;13680;49.936;11.344;2024-01-11T06:29:06;97805.44;;;-7.41;68.34
25855;BME280;13680;49.936;11.344;2024-01-11T06:31:32;97806.91;;;-7.38;69.36
25855;BME280;13680;49.936;11.344;2024-01-11T06:33:57;97809.81;;;-7.42;68.53
25855;BME280;13680;49.936;11.344;2024-01-11T06:36:22;97811.47;;;-7.41;69.24
25855;BME280;13680;49.936;11.344;2024-01-11T06:38:48;97809.66;;;-7.40;68.89
25855;BME280;13680;49.936;11.344;2024-01-11T06:41:13;97806.25;;;-7.41;68.76
25855;BME280;13680;49.936;11.344;2024-01-11T06:43:39;97811.63;;;-7.42;68.63
25855;BME280;13680;49.936;11.344;2024-01-11T06:46:05;97814.41;;;-7.44;68.69
25855;BME280;13680;49.936;11.344;2024-01-11T06:48:31;97822.25;;;-7.35;68.97
25855;BME280;13680;49.936;11.344;2024-01-11T06:50:56;97818.84;;;-7.36;68.39
25855;BME280;13680;49.936;11.344;2024-01-11T06:53:22;97818.00;;;-7.36;67.83
25855;BME280;13680;49.936;11.344;2024-01-11T06:55:47;97820.94;;;-7.40;67.79
25855;BME280;13680;49.936;11.344;2024-01-11T06:58:13;97842.47;;;-7.46;68.94
25855;BME280;13680;49.936;11.344;2024-01-11T07:00:38;97843.09;;;-7.52;67.99
25855;BME280;13680;49.936;11.344;2024-01-11T07:03:08;97853.88;;;-7.47;67.71
25855;BME280;13680;49.936;11.344;2024-01-11T07:05:34;97859.91;;;-7.54;68.30
25855;BME280;13680;49.936;11.344;2024-01-11T07:08:00;97854.34;;;-7.51;68.98
25855;BME280;13680;49.936;11.344;2024-01-11T07:10:25;97846.38;;;-7.50;68.35
25855;BME280;13680;49.936;11.344;2024-01-11T07:12:50;97854.69;;;-7.46;68.92
25855;BME280;13680;49.936;11.344;2024-01-11T07:15:15;97850.59;;;-7.49;68.13
25855;BME280;13680;49.936;11.344;2024-01-11T07:17:42;97838.84;;;-7.53;67.97
25855;BME280;13680;49.936;11.344;2024-01-11T07:20:08;97838.06;;;-7.45;68.55
25855;BME280;13680;49.936;11.344;2024-01-11T07:22:34;97828.22;;;-7.51;68.06
25855;BME280;13680;49.936;11.344;2024-01-11T07:24:59;97830.72;;;-7.50;68.23
25855;BME280;13680;49.936;11.344;2024-01-11T07:27:25;97841.44;;;-7.53;68.93
25855;BME280;13680;49.936;11.344;2024-01-11T07:29:51;97836.28;;;-7.45;68.64
25855;BME280;13680;49.936;11.344;2024-01-11T07:32:16;97837.75;;;-7.42;68.60
25855;BME280;13680;49.936;11.344;2024-01-11T07:34:41;97840.53;;;-7.44;68.22
25855;BME280;13680;49.936;11.344;2024-01-11T07:37:06;97848.38;;;-7.35;68.39
25855;BME280;13680;49.936;11.344;2024-01-11T07:39:33;97851.16;;;-7.37;67.55
25855;BME280;13680;49.936;11.344;2024-01-11T07:41:59;97853.59;;;-7.44;67.67
25855;BME280;13680;49.936;11.344;2024-01-11T07:44:24;97851.59;;;-7.50;68.40
25855;BME280;13680;49.936;11.344;2024-01-11T07:46:50;97849.34;;;-7.45;68.56
25855;BME280;13680;49.936;11.344;2024-01-11T07:49:15;97833.78;;;-7.46;68.52
25855;BME280;13680;49.936;11.344;2024-01-11T07:51:40;97843.28;;;-7.45;67.74
25855;BME280;13680;49.936;11.344;2024-01-11T07:54:06;97842.81;;;-7.41;68.62
25855;BME280;13680;49.936;11.344;2024-01-11T07:56:31;97841.34;;;-7.35;67.72
25855;BME280;13680;49.936;11.344;2024-01-11T07:58:56;97828.00;;;-7.32;68.23
25855;BME280;13680;49.936;11.344;2024-01-11T08:01:22;97819.66;;;-7.27;67.65
25855;BME280;13680;49.936;11.344;2024-01-11T08:03:47;97818.72;;;-7.18;68.07
25855;BME280;13680;49.936;11.344;2024-01-11T08:06:13;97817.72;;;-7.25;67.83
25855;BME280;13680;49.936;11.344;2024-01-11T08:08:38;97829.50;;;-7.13;67.46
25855;BME280;13680;49.936;11.344;2024-01-11T08:11:05;97826.25;;;-7.07;68.35
25855;BME280;13680;49.936;11.344;2024-01-11T08:13:31;97823.66;;;-7.07;67.69
25855;BME280;13680;49.936;11.344;2024-01-11T08:15:57;97825.25;;;-7.05;68.22
25855;BME280;13680;49.936;11.344;2024-01-11T08:18:22;97836.06;;;-7.00;68.29
25855;BME280;13680;49.936;11.344;2024-01-11T08:20:48;97835.59;;;-6.87;68.04
25855;BME280;13680;49.936;11.344;2024-01-11T08:23:14;97843.13;;;-6.93;68.83
25855;BME280;13680;49.936;11.344;2024-01-11T08:25:39;97849.81;;;-6.82;68.38
25855;BME280;13680;49.936;11.344;2024-01-11T08:28:05;97846.75;;;-6.77;69.21
25855;BME280;13680;49.936;11.344;2024-01-11T08:30:30;97834.16;;;-6.49;68.42
25855;BME280;13680;49.936;11.344;2024-01-11T08:32:55;97853.44;;;-6.66;69.21
25855;BME280;13680;49.936;11.344;2024-01-11T08:35:21;97844.16;;;-6.44;68.46
25855;BME280;13680;49.936;11.344;2024-01-11T08:37:46;97838.75;;;-6.43;68.72
25855;BME280;13680;49.936;11.344;2024-01-11T08:40:12;97853.28;;;-6.48;70.65
25855;BME280;13680;49.936;11.344;2024-01-11T08:42:37;97859.03;;;-6.36;70.11
25855;BME280;13680;49.936;11.344;2024-01-11T08:45:05;97870.28;;;-6.19;69.59
25855;BME280;13680;49.936;11.344;2024-01-11T08:47:33;97874.72;;;-6.12;68.97
25855;BME280;13680;49.936;11.344;2024-01-11T08:49:58;97860.63;;;-6.02;69.57
25855;BME280;13680;49.936;11.344;2024-01-11T08:52:24;97861.22;;;-5.84;70.19
25855;BME280;13680;49.936;11.344;2024-01-11T08:54:49;97855.66;;;-5.89;71.11
25855;BME280;13680;49.936;11.344;2024-01-11T08:57:14;97885.44;;;-5.73;71.30
25855;BME280;13680;49.936;11.344;2024-01-11T08:59:40;97881.13;;;-5.58;71.42
25855;BME280;13680;49.936;11.344;2024-01-11T09:02:06;97871.56;;;-5.43;70.53
25855;BME280;13680;49.936;11.344;2024-01-11T09:04:31;97859.38;;;-5.19;70.83
25855;BME280;13680;49.936;11.344;2024-01-11T09:06:57;97836.78;;;-4.97;71.18
25855;BME280;13680;49.936;11.344;2024-01-11T09:09:22;97847.34;;;-4.82;71.55
25855;BME280;13680;49.936;11.344;2024-01-11T09:11:47;97838.28;;;-4.48;71.48
25855;BME280;13680;49.936;11.344;2024-01-11T09:14:14;97820.22;;;-4.13;71.11
25855;BME280;13680;49.936;11.344;2024-01-11T09:16:40;97816.09;;;-3.92;70.59
25855;BME280;13680;49.936;11.344;2024-01-11T09:19:05;97817.50;;;-3.45;70.98
25855;BME280;13680;49.936;11.344;2024-01-11T09:21:31;97824.00;;;-3.10;70.53
25855;BME280;13680;49.936;11.344;2024-01-11T09:23:56;97821.13;;;-2.57;69.50
25855;BME280;13680;49.936;11.344;2024-01-11T09:26:21;97814.47;;;-2.25;69.83
25855;BME280;13680;49.936;11.344;2024-01-11T09:28:48;97830.94;;;-2.23;67.66
25855;BME280;13680;49.936;11.344;2024-01-11T09:31:14;97834.13;;;-1.99;66.60
25855;BME280;13680;49.936;11.344;2024-01-11T09:33:39;97824.63;;;-1.65;66.85
25855;BME280;13680;49.936;11.344;2024-01-11T09:36:05;97822.13;;;-1.38;66.31
25855;BME280;13680;49.936;11.344;2024-01-11T09:38:30;97827.16;;;-0.95;66.07
25855;BME280;13680;49.936;11.344;2024-01-11T09:41:07;97832.63;;;-1.03;65.50
25855;BME280;13680;49.936;11.344;2024-01-11T09:43:34;97841.31;;;-0.34;64.78
25855;BME280;13680;49.936;11.344;2024-01-11T09:46:03;97835.41;;;-0.03;63.93
25855;BME280;13680;49.936;11.344;2024-01-11T09:48:29;97847.81;;;0.04;61.82
25855;BME280;13680;49.936;11.344;2024-01-11T09:50:57;97848.41;;;0.12;60.21
25855;BME280;13680;49.936;11.344;2024-01-11T09:53:24;97834.38;;;0.19;59.26
25855;BME280;13680;49.936;11.344;2024-01-11T09:55:50;97841.06;;;0.41;59.64
25855;BME280;13680;49.936;11.344;2024-01-11T09:58:17;97835.38;;;0.38;60.05
25855;BME280;13680;49.936;11.344;2024-01-11T10:00:44;97821.34;;;0.89;60.06
25855;BME280;13680;49.936;11.344;2024-01-11T10:03:10;97818.69;;;0.89;58.91
25855;BME280;13680;49.936;11.344;2024-01-11T10:05:36;97837.00;;;1.36;57.59
25855;BME280;13680;49.936;11.344;2024-01-11T10:08:01;97828.13;;;1.56;58.26
25855;BME280;13680;49.936;11.344;2024-01-11T10:10:27;97808.47;;;1.89;57.04
25855;BME280;13680;49.936;11.344;2024-01-11T10:12:52;97812.88;;;2.02;56.21
25855;BME280;13680;49.936;11.344;2024-01-11T10:15:18;97807.81;;;1.75;54.97
25855;BME280;13680;49.936;11.344;2024-01-11T10:17:45;97809.94;;;2.10;55.77
25855;BME280;13680;49.936;11.344;2024-01-11T10:20:13;97803.88;;;2.03;56.28
25855;BME280;13680;49.936;11.344;2024-01-11T10:22:42;97804.31;;;2.25;55.57
25855;BME280;13680;49.936;11.344;2024-01-11T10:25:12;97794.25;;;2.27;54.36
25855;BME280;13680;49.936;11.344;2024-01-11T10:27:40;97786.13;;;2.03;54.92
25855;BME280;13680;49.936;11.344;2024-01-11T10:30:08;97787.59;;;1.99;55.15
25855;BME280;13680;49.936;11.344;2024-01-11T10:32:34;97771.09;;;1.97;54.46
25855;BME280;13680;49.936;11.344;2024-01-11T10:35:03;97780.06;;;1.96;54.25
25855;BME280;13680;49.936;11.344;2024-01-11T10:37:30;97785.81;;;1.93;54.61
25855;BME280;13680;49.936;11.344;2024-01-11T10:39:57;97789.44;;;1.73;54.90
25855;BME280;13680;49.936;11.344;2024-01-11T10:42:24;97787.16;;;2.02;55.13
25855;BME280;13680;49.936;11.344;2024-01-11T10:44:54;97794.47;;;2.07;53.64
25855;BME280;13680;49.936;11.344;2024-01-11T10:47:21;97789.47;;;2.36;53.06
25855;BME280;13680;49.936;11.344;2024-01-11T10:49:50;97785.66;;;2.50;53.22
25855;BME280;13680;49.936;11.344;2024-01-11T10:52:21;97793.38;;;2.70;52.66
25855;BME280;13680;49.936;11.344;2024-01-11T10:54:48;97791.88;;;2.93;51.76
25855;BME280;13680;49.936;11.344;2024-01-11T10:57:16;97786.75;;;3.10;51.83
25855;BME280;13680;49.936;11.344;2024-01-11T10:59:42;97779.13;;;3.14;51.12
25855;BME280;13680;49.936;11.344;2024-01-11T11:02:09;97774.44;;;2.97;51.08
25855;BME280;13680;49.936;11.344;2024-01-11T11:04:38;97788.06;;;3.19;51.17
25855;BME280;13680;49.936;11.344;2024-01-11T11:07:05;97785.28;;;3.14;51.92
25855;BME280;13680;49.936;11.344;2024-01-11T11:09:34;97790.13;;;3.59;52.00
25855;BME280;13680;49.936;11.344;2024-01-11T11:12:00;97790.19;;;3.95;50.07
25855;BME280;13680;49.936;11.344;2024-01-11T11:14:25;97782.31;;;4.12;49.25
25855;BME280;13680;49.936;11.344;2024-01-11T11:16:52;97800.38;;;4.22;49.71
25855;BME280;13680;49.936;11.344;2024-01-11T11:19:19;97804.66;;;4.47;48.86
25855;BME280;13680;49.936;11.344;2024-01-11T11:21:47;97806.47;;;4.99;48.04
25855;BME280;13680;49.936;11.344;2024-01-11T11:24:13;97796.75;;;5.50;46.67
25855;BME280;13680;49.936;11.344;2024-01-11T11:26:39;97788.03;;;5.72;45.92
25855;BME280;13680;49.936;11.344;2024-01-11T11:29:04;97781.28;;;6.37;44.21
25855;BME280;13680;49.936;11.344;2024-01-11T11:31:35;97775.47;;;6.85;43.31
25855;BME280;13680;49.936;11.344;2024-01-11T11:34:01;97781.50;;;6.97;43.16
25855;BME280;13680;49.936;11.344;2024-01-11T11:36:29;97773.38;;;7.14;42.86
25855;BME280;13680;49.936;11.344;2024-01-11T11:38:56;97776.88;;;7.75;41.79
25855;BME280;13680;49.936;11.344;2024-01-11T11:41:26;97763.53;;;8.23;40.67
25855;BME280;13680;49.936;11.344;2024-01-11T11:43:51;97756.91;;;8.35;39.04
25855;BME280;13680;49.936;11.344;2024-01-11T11:46:17;97758.91;;;8.08;39.17
25855;BME280;13680;49.936;11.344;2024-01-11T11:48:52;97768.09;;;8.22;38.07
25855;BME280;13680;49.936;11.344;2024-01-11T11:51:22;97759.34;;;7.94;37.51
25855;BME280;13680;49.936;11.344;2024-01-11T11:53:48;97752.09;;;8.32;35.94
25855;BME280;13680;49.936;11.344;2024-01-11T11:56:16;97760.53;;;8.14;37.77
25855;BME280;13680;49.936;11.344;2024-01-11T11:58:42;97760.34;;;8.21;35.44
25855;BME280;13680;49.936;11.344;2024-01-11T12:01:08;97754.94;;;7.78;36.82
25855;BME280;13680;49.936;11.344;2024-01-11T12:03:40;97745.59;;;8.18;35.63
25855;BME280;13680;49.936;11.344;2024-01-11T12:06:09;97735.47;;;8.35;37.11
25855;BME280;13680;49.936;11.344;2024-01-11T12:08:36;97737.78;;;8.64;36.06
25855;BME280;13680;49.936;11.344;2024-01-11T12:11:02;97720.91;;;8.69;36.11
25855;BME280;13680;49.936;11.344;2024-01-11T12:13:28;97729.97;;;8.52;37.02
25855;BME280;13680;49.936;11.344;2024-01-11T12:15:53;97729.28;;;8.25;36.31
25855;BME280;13680;49.936;11.344;2024-01-11T12:18:19;97718.31;;;8.31;35.31
25855;BME280;13680;49.936;11.344;2024-01-11T12:20:44;97720.47;;;8.29;36.40
25855;BME280;13680;49.936;11.344;2024-01-11T12:23:10;97712.38;;;8.19;36.03
25855;BME280;13680;49.936;11.344;2024-01-11T12:25:36;97719.63;;;8.29;36.36
25855;BME280;13680;49.936;11.344;2024-01-11T12:28:02;97718.66;;;8.45;35.33
25855;BME280;13680;49.936;11.344;2024-01-11T12:30:27;97716.63;;;8.68;35.02
25855;BME280;13680;49.936;11.344;2024-01-11T12:32:55;97719.69;;;8.39;35.81
25855;BME280;13680;49.936;11.344;2024-01-11T12:35:21;97706.97;;;8.14;35.77
25855;BME280;13680;49.936;11.344;2024-01-11T12:37:58;97711.41;;;7.93;35.43
25855;BME280;13680;49.936;11.344;2024-01-11T12:40:24;97715.19;;;7.59;36.59
25855;BME280;13680;49.936;11.344;2024-01-11T12:42:52;97699.13;;;7.27;37.22
25855;BME280;13680;49.936;11.344;2024-01-11T12:45:18;97706.13;;;7.00;38.39
25855;BME280;13680;49.936;11.344;2024-01-11T12:47:44;97714.75;;;6.80;39.06
25855;BME280;13680;49.936;11.344;2024-01-11T12:50:09;97713.38;;;6.78;39.72